sensor_id;sensor_type;location;lat;lon;timestamp;temperature;humidity
12043;DHT22;6082;49.306;12.862;2023-09-08T00:02:19;17.30;99.90
12043;DHT22;6082;49.306;12.862;2023-09-08T00:04:44;17.30;99.90
12043;DHT22;6082;49.306;12.862;2023-09-08T00:07:10;17.30;99.90
12043;DHT22;6082;49.306;12.862;2023-09-08T00:09:36;17.30;99.90
12043;DHT22;6082;49.306;12.862;2023-09-08T00:12:01;17.20;99.90
12043;DHT22;6082;49.306;12.862;2023-09-08T00:14:27;17.10;99.90
12043;DHT22;6082;49.306;12.862;2023-09-08T00:16:53;17.00;99.90
12043;DHT22;6082;49.306;12.862;2023-09-08T00:19:20;17.00;99.90
12043;DHT22;6082;49.306;12.862;2023-09-08T00:21:46;17.10;99.90
12043;DHT22;6082;49.306;12.862;2023-09-08T00:24:12;17.10;99.90
12043;DHT22;6082;49.306;12.862;2023-09-08T00:26:38;16.80;99.90
12043;DHT22;6082;49.306;12.862;2023-09-08T00:29:03;16.60;99.90
12043;DHT22;6082;49.306;12.862;2023-09-08T00:31:29;16.40;99.90
12043;DHT22;6082;49.306;12.862;2023-09-08T00:33:54;16.40;99.90
12043;DHT22;6082;49.306;12.862;2023-09-08T00:36:20;16.50;99.90
12043;DHT22;6082;49.306;12.862;2023-09-08T00:38:46;16.30;99.90
12043;DHT22;6082;49.306;12.862;2023-09-08T00:41:11;16.20;99.90
12043;DHT22;6082;49.306;12.862;2023-09-08T00:43:37;15.90;99.90
12043;DHT22;6082;49.306;12.862;2023-09-08T00:46:03;15.80;99.90
12043;DHT22;6082;49.306;12.862;2023-09-08T00:48:30;15.70;99.90
12043;DHT22;6082;49.306;12.862;2023-09-08T00:50:56;15.60;99.90
12043;DHT22;6082;49.306;12.862;2023-09-08T00:53:23;15.50;99.90
12043;DHT22;6082;49.306;12.862;2023-09-08T00:55:49;15.40;99.90
12043;DHT22;6082;49.306;12.862;2023-09-08T00:58:15;15.40;99.90
12043;DHT22;6082;49.306;12.862;2023-09-08T01:00:41;15.50;99.90
12043;DHT22;6082;49.306;12.862;2023-09-08T01:03:07;15.50;99.90
12043;DHT22;6082;49.306;12.862;2023-09-08T01:05:33;15.50;99.90
12043;DHT22;6082;49.306;12.862;2023-09-08T01:07:59;15.50;99.90
12043;DHT22;6082;49.306;12.862;2023-09-08T01:10:26;15.50;99.90
12043;DHT22;6082;49.306;12.862;2023-09-08T01:12:51;15.40;99.90
12043;DHT22;6082;49.306;12.862;2023-09-08T01:15:17;15.40;99.90
12043;DHT22;6082;49.306;12.862;2023-09-08T01:17:43;15.30;99.90
12043;DHT22;6082;49.306;12.862;2023-09-08T01:20:30;15.20;99.90
12043;DHT22;6082;49.306;12.862;2023-09-08T01:23:21;15.20;99.90
12043;DHT22;6082;49.306;12.862;2023-09-08T01:25:57;15.00;99.90
12043;DHT22;6082;49.306;12.862;2023-09-08T01:28:25;15.00;99.90
12043;DHT22;6082;49.306;12.862;2023-09-08T01:30:52;15.00;99.90
12043;DHT22;6082;49.306;12.862;2023-09-08T01:33:19;15.00;99.90
12043;DHT22;6082;49.306;12.862;2023-09-08T01:35:46;15.00;99.90
12043;DHT22;6082;49.306;12.862;2023-09-08T01:38:12;15.00;99.90
12043;DHT22;6082;49.306;12.862;2023-09-08T01:40:37;14.90;99.90
12043;DHT22;6082;49.306;12.862;2023-09-08T01:43:03;14.80;99.90
12043;DHT22;6082;49.306;12.862;2023-09-08T01:45:29;14.70;99.90
12043;DHT22;6082;49.306;12.862;2023-09-08T01:47:55;14.80;99.90
12043;DHT22;6082;49.306;12.862;2023-09-08T01:50:20;14.90;99.90
12043;DHT22;6082;49.306;12.862;2023-09-08T01:52:48;14.90;99.90
12043;DHT22;6082;49.306;12.862;2023-09-08T01:55:14;14.90;99.90
12043;DHT22;6082;49.306;12.862;2023-09-08T01:57:41;14.80;99.90
12043;DHT22;6082;49.306;12.862;2023-09-08T02:00:08;14.80;99.90
12043;DHT22;6082;49.306;12.862;2023-09-08T02:02:33;14.70;99.90
12043;DHT22;6082;49.306;12.862;2023-09-08T02:04:59;14.60;99.90
12043;DHT22;6082;49.306;12.862;2023-09-08T02:07:25;14.50;99.90
12043;DHT22;6082;49.306;12.862;2023-09-08T02:09:50;14.60;99.90
12043;DHT22;6082;49.306;12.862;2023-09-08T02:12:16;14.50;99.90
12043;DHT22;6082;49.306;12.862;2023-09-08T02:14:42;14.40;99.90
12043;DHT22;6082;49.306;12.862;2023-09-08T02:17:07;14.40;99.90
12043;DHT22;6082;49.306;12.862;2023-09-08T02:19:33;14.40;99.90
12043;DHT22;6082;49.306;12.862;2023-09-08T02:21:59;14.40;99.90
12043;DHT22;6082;49.306;12.862;2023-09-08T02:24:25;14.40;99.90
12043;DHT22;6082;49.306;12.862;2023-09-08T02:26:50;14.30;99.90
12043;DHT22;6082;49.306;12.862;2023-09-08T02:29:16;14.20;99.90
12043;DHT22;6082;49.306;12.862;2023-09-08T02:31:41;14.20;99.90
12043;DHT22;6082;49.306;12.862;2023-09-08T02:34:07;14.10;99.90
12043;DHT22;6082;49.306;12.862;2023-09-08T02:36:33;14.10;99.90
12043;DHT22;6082;49.306;12.862;2023-09-08T02:38:59;14.10;99.90
12043;DHT22;6082;49.306;12.862;2023-09-08T02:41:24;14.10;99.90
12043;DHT22;6082;49.306;12.862;2023-09-08T02:43:50;14.00;99.90
12043;DHT22;6082;49.306;12.862;2023-09-08T02:46:16;14.00;99.90
12043;DHT22;6082;49.306;12.862;2023-09-08T02:48:41;14.00;99.90
12043;DHT22;6082;49.306;12.862;2023-09-08T02:51:07;14.00;99.90
12043;DHT22;6082;49.306;12.862;2023-09-08T02:53:33;14.00;99.90
12043;DHT22;6082;49.306;12.862;2023-09-08T02:55:59;13.90;99.90
12043;DHT22;6082;49.306;12.862;2023-09-08T02:58:26;13.90;99.90
12043;DHT22;6082;49.306;12.862;2023-09-08T03:00:52;13.80;99.90
12043;DHT22;6082;49.306;12.862;2023-09-08T03:03:18;13.80;99.90
12043;DHT22;6082;49.306;12.862;2023-09-08T03:05:44;13.70;99.90
12043;DHT22;6082;49.306;12.862;2023-09-08T03:08:10;13.70;99.90
12043;DHT22;6082;49.306;12.862;2023-09-08T03:10:36;13.70;99.90
12043;DHT22;6082;49.306;12.862;2023-09-08T03:13:02;13.70;99.90
12043;DHT22;6082;49.306;12.862;2023-09-08T03:15:28;13.60;99.90
12043;DHT22;6082;49.306;12.862;2023-09-08T03:17:57;13.70;99.90
12043;DHT22;6082;49.306;12.862;2023-09-08T03:20:26;13.70;99.90
12043;DHT22;6082;49.306;12.862;2023-09-08T03:22:53;13.70;99.90
12043;DHT22;6082;49.306;12.862;2023-09-08T03:25:18;13.70;99.90
12043;DHT22;6082;49.306;12.862;2023-09-08T03:27:44;13.60;99.90
12043;DHT22;6082;49.306;12.862;2023-09-08T03:30:10;13.50;99.90
12043;DHT22;6082;49.306;12.862;2023-09-08T03:32:37;13.50;99.90
12043;DHT22;6082;49.306;12.862;2023-09-08T03:35:03;13.50;99.90
12043;DHT22;6082;49.306;12.862;2023-09-08T03:37:31;13.50;99.90
12043;DHT22;6082;49.306;12.862;2023-09-08T03:39:57;13.60;99.90
12043;DHT22;6082;49.306;12.862;2023-09-08T03:42:23;13.60;99.90
12043;DHT22;6082;49.306;12.862;2023-09-08T03:44:48;13.60;99.90
12043;DHT22;6082;49.306;12.862;2023-09-08T03:47:14;13.70;99.90
12043;DHT22;6082;49.306;12.862;2023-09-08T03:49:43;13.80;99.90
12043;DHT22;6082;49.306;12.862;2023-09-08T03:52:09;13.80;99.90
12043;DHT22;6082;49.306;12.862;2023-09-08T03:54:34;13.80;99.90
12043;DHT22;6082;49.306;12.862;2023-09-08T03:57:00;13.80;99.90
12043;DHT22;6082;49.306;12.862;2023-09-08T03:59:26;13.70;99.90
12043;DHT22;6082;49.306;12.862;2023-09-08T04:01:51;13.70;99.90
12043;DHT22;6082;49.306;12.862;2023-09-08T04:04:17;13.70;99.90
12043;DHT22;6082;49.306;12.862;2023-09-08T04:06:45;13.80;99.90
12043;DHT22;6082;49.306;12.862;2023-09-08T04:09:11;13.80;99.90
12043;DHT22;6082;49.306;12.862;2023-09-08T04:11:36;13.80;99.90
12043;DHT22;6082;49.306;12.862;2023-09-08T04:14:02;13.70;99.90
12043;DHT22;6082;49.306;12.862;2023-09-08T04:16:28;13.70;99.90
12043;DHT22;6082;49.306;12.862;2023-09-08T04:18:54;13.80;99.90
12043;DHT22;6082;49.306;12.862;2023-09-08T04:21:20;13.70;99.90
12043;DHT22;6082;49.306;12.862;2023-09-08T04:23:46;13.60;99.90
12043;DHT22;6082;49.306;12.862;2023-09-08T04:26:13;13.50;99.90
12043;DHT22;6082;49.306;12.862;2023-09-08T04:28:38;13.40;99.90
12043;DHT22;6082;49.306;12.862;2023-09-08T04:31:04;13.30;99.90
12043;DHT22;6082;49.306;12.862;2023-09-08T04:33:30;13.20;99.90
12043;DHT22;6082;49.306;12.862;2023-09-08T04:35:56;13.20;99.90
12043;DHT22;6082;49.306;12.862;2023-09-08T04:38:21;13.20;99.90
12043;DHT22;6082;49.306;12.862;2023-09-08T04:40:47;13.10;99.90
12043;DHT22;6082;49.306;12.862;2023-09-08T04:43:13;13.10;99.90
12043;DHT22;6082;49.306;12.862;2023-09-08T04:45:39;13.00;99.90
12043;DHT22;6082;49.306;12.862;2023-09-08T04:48:05;12.90;99.90
12043;DHT22;6082;49.306;12.862;2023-09-08T04:50:30;12.90;99.90
12043;DHT22;6082;49.306;12.862;2023-09-08T04:52:56;12.90;99.90
12043;DHT22;6082;49.306;12.862;2023-09-08T04:55:22;12.80;99.90
12043;DHT22;6082;49.306;12.862;2023-09-08T04:57:48;12.80;99.90
12043;DHT22;6082;49.306;12.862;2023-09-08T05:00:14;12.80;99.90
12043;DHT22;6082;49.306;12.862;2023-09-08T05:02:40;12.80;99.90
12043;DHT22;6082;49.306;12.862;2023-09-08T05:05:06;12.80;99.90
12043;DHT22;6082;49.306;12.862;2023-09-08T05:07:32;12.80;99.90
12043;DHT22;6082;49.306;12.862;2023-09-08T05:09:57;12.80;99.90
12043;DHT22;6082;49.306;12.862;2023-09-08T05:12:23;12.80;99.90
12043;DHT22;6082;49.306;12.862;2023-09-08T05:14:49;12.80;99.90
12043;DHT22;6082;49.306;12.862;2023-09-08T05:17:21;12.80;99.90
12043;DHT22;6082;49.306;12.862;2023-09-08T05:19:47;12.80;99.90
12043;DHT22;6082;49.306;12.862;2023-09-08T05:22:12;12.80;99.90
12043;DHT22;6082;49.306;12.862;2023-09-08T05:24:38;12.90;99.90
12043;DHT22;6082;49.306;12.862;2023-09-08T05:27:04;13.00;99.90
12043;DHT22;6082;49.306;12.862;2023-09-08T05:29:30;13.00;99.90
12043;DHT22;6082;49.306;12.862;2023-09-08T05:31:55;13.10;99.90
12043;DHT22;6082;49.306;12.862;2023-09-08T05:34:21;13.20;99.90
12043;DHT22;6082;49.306;12.862;2023-09-08T05:36:47;13.30;99.90
12043;DHT22;6082;49.306;12.862;2023-09-08T05:39:15;13.40;99.90
12043;DHT22;6082;49.306;12.862;2023-09-08T05:41:40;13.40;99.90
12043;DHT22;6082;49.306;12.862;2023-09-08T05:44:06;13.50;99.90
12043;DHT22;6082;49.306;12.862;2023-09-08T05:46:32;13.60;99.90
12043;DHT22;6082;49.306;12.862;2023-09-08T05:48:57;13.70;99.90
12043;DHT22;6082;49.306;12.862;2023-09-08T05:51:23;13.80;99.90
12043;DHT22;6082;49.306;12.862;2023-09-08T05:53:49;13.90;99.90
12043;DHT22;6082;49.306;12.862;2023-09-08T05:56:15;13.90;99.90
12043;DHT22;6082;49.306;12.862;2023-09-08T05:58:40;14.00;99.90
12043;DHT22;6082;49.306;12.862;2023-09-08T06:01:06;14.10;99.90
12043;DHT22;6082;49.306;12.862;2023-09-08T06:03:32;14.20;99.90
12043;DHT22;6082;49.306;12.862;2023-09-08T06:05:58;14.30;99.90
12043;DHT22;6082;49.306;12.862;2023-09-08T06:08:24;14.30;99.90
12043;DHT22;6082;49.306;12.862;2023-09-08T06:10:50;14.40;99.90
12043;DHT22;6082;49.306;12.862;2023-09-08T06:13:16;14.50;99.90
12043;DHT22;6082;49.306;12.862;2023-09-08T06:15:42;14.60;99.90
12043;DHT22;6082;49.306;12.862;2023-09-08T06:18:08;14.60;99.90
12043;DHT22;6082;49.306;12.862;2023-09-08T06:20:34;14.80;99.90
12043;DHT22;6082;49.306;12.862;2023-09-08T06:22:59;14.80;99.90
12043;DHT22;6082;49.306;12.862;2023-09-08T06:25:26;14.90;99.90
12043;DHT22;6082;49.306;12.862;2023-09-08T06:27:53;14.90;99.90
12043;DHT22;6082;49.306;12.862;2023-09-08T06:30:19;15.00;99.90
12043;DHT22;6082;49.306;12.862;2023-09-08T06:32:45;15.10;99.90
12043;DHT22;6082;49.306;12.862;2023-09-08T06:35:11;15.10;99.90
12043;DHT22;6082;49.306;12.862;2023-09-08T06:37:37;15.20;99.90
12043;DHT22;6082;49.306;12.862;2023-09-08T06:40:04;15.30;99.90
12043;DHT22;6082;49.306;12.862;2023-09-08T06:42:30;15.40;99.90
12043;DHT22;6082;49.306;12.862;2023-09-08T06:44:56;15.50;99.90
12043;DHT22;6082;49.306;12.862;2023-09-08T06:47:21;15.60;99.90
12043;DHT22;6082;49.306;12.862;2023-09-08T06:49:47;15.60;99.90
12043;DHT22;6082;49.306;12.862;2023-09-08T06:52:13;15.70;99.90
12043;DHT22;6082;49.306;12.862;2023-09-08T06:54:38;15.80;99.90
12043;DHT22;6082;49.306;12.862;2023-09-08T06:57:04;15.80;99.90
12043;DHT22;6082;49.306;12.862;2023-09-08T06:59:30;15.90;99.90
12043;DHT22;6082;49.306;12.862;2023-09-08T07:01:56;15.90;99.90
12043;DHT22;6082;49.306;12.862;2023-09-08T07:04:21;16.10;99.90
12043;DHT22;6082;49.306;12.862;2023-09-08T07:06:47;16.20;99.90
12043;DHT22;6082;49.306;12.862;2023-09-08T07:09:15;16.30;99.90
12043;DHT22;6082;49.306;12.862;2023-09-08T07:11:41;16.40;99.90
12043;DHT22;6082;49.306;12.862;2023-09-08T07:14:07;16.50;99.90
12043;DHT22;6082;49.306;12.862;2023-09-08T07:16:32;16.60;99.90
12043;DHT22;6082;49.306;12.862;2023-09-08T07:18:58;16.70;99.90
12043;DHT22;6082;49.306;12.862;2023-09-08T07:21:26;16.80;99.90
12043;DHT22;6082;49.306;12.862;2023-09-08T07:23:52;16.90;99.90
12043;DHT22;6082;49.306;12.862;2023-09-08T07:26:19;17.00;99.90
12043;DHT22;6082;49.306;12.862;2023-09-08T07:28:45;17.00;99.90
12043;DHT22;6082;49.306;12.862;2023-09-08T07:31:11;17.10;99.90
12043;DHT22;6082;49.306;12.862;2023-09-08T07:33:37;17.20;99.90
12043;DHT22;6082;49.306;12.862;2023-09-08T07:36:07;17.20;99.90
12043;DHT22;6082;49.306;12.862;2023-09-08T07:38:34;17.20;99.90
12043;DHT22;6082;49.306;12.862;2023-09-08T07:41:03;17.30;99.90
12043;DHT22;6082;49.306;12.862;2023-09-08T07:43:29;17.30;99.90
12043;DHT22;6082;49.306;12.862;2023-09-08T07:45:54;17.50;99.90
12043;DHT22;6082;49.306;12.862;2023-09-08T07:48:20;17.50;99.90
12043;DHT22;6082;49.306;12.862;2023-09-08T07:50:46;17.60;99.90
12043;DHT22;6082;49.306;12.862;2023-09-08T07:53:11;17.70;99.90
12043;DHT22;6082;49.306;12.862;2023-09-08T07:55:37;17.70;99.90
12043;DHT22;6082;49.306;12.862;2023-09-08T07:58:03;17.80;99.90
12043;DHT22;6082;49.306;12.862;2023-09-08T08:00:29;17.90;99.90
12043;DHT22;6082;49.306;12.862;2023-09-08T08:02:56;17.90;99.90
12043;DHT22;6082;49.306;12.862;2023-09-08T08:05:22;17.90;99.90
12043;DHT22;6082;49.306;12.862;2023-09-08T08:07:48;18.00;99.90
12043;DHT22;6082;49.306;12.862;2023-09-08T08:10:14;18.20;99.90
12043;DHT22;6082;49.306;12.862;2023-09-08T08:12:41;18.30;99.90
12043;DHT22;6082;49.306;12.862;2023-09-08T08:15:08;18.40;99.90
12043;DHT22;6082;49.306;12.862;2023-09-08T08:17:36;18.50;99.90
12043;DHT22;6082;49.306;12.862;2023-09-08T08:20:03;18.60;99.90
12043;DHT22;6082;49.306;12.862;2023-09-08T08:22:33;18.70;99.90
12043;DHT22;6082;49.306;12.862;2023-09-08T08:24:59;18.80;99.90
12043;DHT22;6082;49.306;12.862;2023-09-08T08:27:24;18.90;99.90
12043;DHT22;6082;49.306;12.862;2023-09-08T08:29:50;18.90;99.90
12043;DHT22;6082;49.306;12.862;2023-09-08T08:32:16;19.00;99.90
12043;DHT22;6082;49.306;12.862;2023-09-08T08:34:42;19.10;99.90
12043;DHT22;6082;49.306;12.862;2023-09-08T08:37:08;19.20;99.90
12043;DHT22;6082;49.306;12.862;2023-09-08T08:39:34;19.30;99.90
12043;DHT22;6082;49.306;12.862;2023-09-08T08:42:07;19.40;99.90
12043;DHT22;6082;49.306;12.862;2023-09-08T08:44:33;19.50;99.90
12043;DHT22;6082;49.306;12.862;2023-09-08T08:47:02;19.50;99.90
12043;DHT22;6082;49.306;12.862;2023-09-08T08:49:30;19.60;99.90
12043;DHT22;6082;49.306;12.862;2023-09-08T08:51:56;19.60;99.90
12043;DHT22;6082;49.306;12.862;2023-09-08T08:54:24;19.70;99.90
12043;DHT22;6082;49.306;12.862;2023-09-08T08:56:50;19.70;99.90
12043;DHT22;6082;49.306;12.862;2023-09-08T08:59:16;19.90;99.90
12043;DHT22;6082;49.306;12.862;2023-09-08T09:01:42;19.90;99.90
12043;DHT22;6082;49.306;12.862;2023-09-08T09:04:08;19.90;99.90
12043;DHT22;6082;49.306;12.862;2023-09-08T09:06:35;20.00;99.90
12043;DHT22;6082;49.306;12.862;2023-09-08T09:09:02;20.20;99.90
12043;DHT22;6082;49.306;12.862;2023-09-08T09:11:30;20.30;99.90
12043;DHT22;6082;49.306;12.862;2023-09-08T09:13:57;20.40;99.90
12043;DHT22;6082;49.306;12.862;2023-09-08T09:16:23;20.60;99.90
12043;DHT22;6082;49.306;12.862;2023-09-08T09:19:00;20.60;99.90
12043;DHT22;6082;49.306;12.862;2023-09-08T09:21:43;20.70;99.90
12043;DHT22;6082;49.306;12.862;2023-09-08T09:24:17;20.80;99.90
12043;DHT22;6082;49.306;12.862;2023-09-08T09:26:43;20.70;99.90
12043;DHT22;6082;49.306;12.862;2023-09-08T09:29:15;20.70;99.90
12043;DHT22;6082;49.306;12.862;2023-09-08T09:32:12;20.80;99.90
12043;DHT22;6082;49.306;12.862;2023-09-08T09:34:51;20.80;99.90
12043;DHT22;6082;49.306;12.862;2023-09-08T09:37:19;20.90;99.90
12043;DHT22;6082;49.306;12.862;2023-09-08T09:39:49;21.00;99.90
12043;DHT22;6082;49.306;12.862;2023-09-08T09:42:15;21.10;99.90
12043;DHT22;6082;49.306;12.862;2023-09-08T09:44:41;21.30;99.90
12043;DHT22;6082;49.306;12.862;2023-09-08T09:47:07;21.30;99.90
12043;DHT22;6082;49.306;12.862;2023-09-08T09:49:42;21.30;99.90
12043;DHT22;6082;49.306;12.862;2023-09-08T09:52:08;21.50;99.90
12043;DHT22;6082;49.306;12.862;2023-09-08T09:54:34;21.60;99.90
12043;DHT22;6082;49.306;12.862;2023-09-08T09:57:00;21.80;99.90
12043;DHT22;6082;49.306;12.862;2023-09-08T09:59:27;21.90;99.90
12043;DHT22;6082;49.306;12.862;2023-09-08T10:01:53;22.00;99.90
12043;DHT22;6082;49.306;12.862;2023-09-08T10:04:19;22.10;99.90
12043;DHT22;6082;49.306;12.862;2023-09-08T10:06:45;22.30;99.90
12043;DHT22;6082;49.306;12.862;2023-09-08T10:09:11;22.40;99.90
12043;DHT22;6082;49.306;12.862;2023-09-08T10:11:48;22.40;99.90
12043;DHT22;6082;49.306;12.862;2023-09-08T10:14:15;22.40;99.90
12043;DHT22;6082;49.306;12.862;2023-09-08T10:16:44;22.40;99.90
12043;DHT22;6082;49.306;12.862;2023-09-08T10:19:11;22.50;99.90
12043;DHT22;6082;49.306;12.862;2023-09-08T10:21:40;22.70;99.90
12043;DHT22;6082;49.306;12.862;2023-09-08T10:24:27;22.80;99.90
12043;DHT22;6082;49.306;12.862;2023-09-08T10:29:27;23.00;99.90
12043;DHT22;6082;49.306;12.862;2023-09-08T10:31:54;23.10;99.90
12043;DHT22;6082;49.306;12.862;2023-09-08T10:34:20;23.20;99.90
12043;DHT22;6082;49.306;12.862;2023-09-08T10:36:47;23.10;99.90
12043;DHT22;6082;49.306;12.862;2023-09-08T10:39:32;23.10;99.90
12043;DHT22;6082;49.306;12.862;2023-09-08T10:47:14;23.20;99.90
12043;DHT22;6082;49.306;12.862;2023-09-08T10:49:43;23.40;99.90
12043;DHT22;6082;49.306;12.862;2023-09-08T10:52:09;23.30;99.90
12043;DHT22;6082;49.306;12.862;2023-09-08T10:54:47;23.50;99.90
12043;DHT22;6082;49.306;12.862;2023-09-08T10:57:15;23.50;99.90
12043;DHT22;6082;49.306;12.862;2023-09-08T11:00:02;23.40;99.90
12043;DHT22;6082;49.306;12.862;2023-09-08T11:02:50;23.50;99.90
12043;DHT22;6082;49.306;12.862;2023-09-08T11:05:26;23.60;99.90
12043;DHT22;6082;49.306;12.862;2023-09-08T11:07:52;23.90;99.90
12043;DHT22;6082;49.306;12.862;2023-09-08T11:10:19;23.80;99.90
12043;DHT22;6082;49.306;12.862;2023-09-08T11:12:45;23.80;99.90
12043;DHT22;6082;49.306;12.862;2023-09-08T11:15:10;23.80;99.90
12043;DHT22;6082;49.306;12.862;2023-09-08T11:17:37;23.80;99.90
12043;DHT22;6082;49.306;12.862;2023-09-08T11:20:07;23.80;99.90
12043;DHT22;6082;49.306;12.862;2023-09-08T11:22:37;23.90;99.90
12043;DHT22;6082;49.306;12.862;2023-09-08T11:25:03;24.00;99.90
12043;DHT22;6082;49.306;12.862;2023-09-08T11:27:32;24.00;99.90
12043;DHT22;6082;49.306;12.862;2023-09-08T11:29:58;24.20;99.90
12043;DHT22;6082;49.306;12.862;2023-09-08T11:32:24;24.30;99.90
12043;DHT22;6082;49.306;12.862;2023-09-08T11:34:50;24.40;99.90
12043;DHT22;6082;49.306;12.862;2023-09-08T11:37:18;24.50;99.90
12043;DHT22;6082;49.306;12.862;2023-09-08T11:39:45;24.50;99.90
12043;DHT22;6082;49.306;12.862;2023-09-08T11:42:15;24.60;99.90
12043;DHT22;6082;49.306;12.862;2023-09-08T11:44:42;24.70;99.90
12043;DHT22;6082;49.306;12.862;2023-09-08T11:47:09;24.80;99.90
12043;DHT22;6082;49.306;12.862;2023-09-08T11:49:40;24.60;99.90
12043;DHT22;6082;49.306;12.862;2023-09-08T11:52:06;24.80;99.90
12043;DHT22;6082;49.306;12.862;2023-09-08T11:54:34;24.90;99.90
12043;DHT22;6082;49.306;12.862;2023-09-08T11:57:01;24.90;99.90
12043;DHT22;6082;49.306;12.862;2023-09-08T11:59:34;25.00;99.90
12043;DHT22;6082;49.306;12.862;2023-09-08T12:02:00;25.00;99.90
12043;DHT22;6082;49.306;12.862;2023-09-08T12:04:27;24.90;99.90
12043;DHT22;6082;49.306;12.862;2023-09-08T12:06:54;25.00;99.90
12043;DHT22;6082;49.306;12.862;2023-09-08T12:09:21;24.90;99.90
12043;DHT22;6082;49.306;12.862;2023-09-08T12:11:47;25.00;99.90
12043;DHT22;6082;49.306;12.862;2023-09-08T12:14:14;25.20;99.90
12043;DHT22;6082;49.306;12.862;2023-09-08T12:16:41;25.20;99.90
12043;DHT22;6082;49.306;12.862;2023-09-08T12:19:08;25.20;99.90
12043;DHT22;6082;49.306;12.862;2023-09-08T12:21:54;25.20;99.90
12043;DHT22;6082;49.306;12.862;2023-09-08T12:24:20;25.10;99.90
12043;DHT22;6082;49.306;12.862;2023-09-08T12:27:06;25.30;99.90
12043;DHT22;6082;49.306;12.862;2023-09-08T12:29:32;25.30;99.90
12043;DHT22;6082;49.306;12.862;2023-09-08T12:31:57;25.20;99.90
12043;DHT22;6082;49.306;12.862;2023-09-08T12:34:23;25.30;99.90
12043;DHT22;6082;49.306;12.862;2023-09-08T12:36:49;25.30;99.90
12043;DHT22;6082;49.306;12.862;2023-09-08T12:39:14;25.30;99.90
12043;DHT22;6082;49.306;12.862;2023-09-08T12:41:40;25.20;99.90
12043;DHT22;6082;49.306;12.862;2023-09-08T12:44:06;25.20;99.90
12043;DHT22;6082;49.306;12.862;2023-09-08T12:46:31;25.20;99.90
12043;DHT22;6082;49.306;12.862;2023-09-08T12:48:59;25.30;99.90
12043;DHT22;6082;49.306;12.862;2023-09-08T12:51:25;25.30;99.90
12043;DHT22;6082;49.306;12.862;2023-09-08T12:53:50;25.50;99.90
12043;DHT22;6082;49.306;12.862;2023-09-08T12:56:16;25.60;99.90
12043;DHT22;6082;49.306;12.862;2023-09-08T12:58:43;25.50;99.90
12043;DHT22;6082;49.306;12.862;2023-09-08T13:01:09;25.60;99.90
12043;DHT22;6082;49.306;12.862;2023-09-08T13:03:34;25.70;99.90
12043;DHT22;6082;49.306;12.862;2023-09-08T13:06:00;25.70;99.90
12043;DHT22;6082;49.306;12.862;2023-09-08T13:08:26;25.70;99.90
12043;DHT22;6082;49.306;12.862;2023-09-08T13:10:52;25.70;99.90
12043;DHT22;6082;49.306;12.862;2023-09-08T13:13:19;25.80;99.90
12043;DHT22;6082;49.306;12.862;2023-09-08T13:15:44;25.70;99.90
12043;DHT22;6082;49.306;12.862;2023-09-08T13:18:10;25.70;99.90
12043;DHT22;6082;49.306;12.862;2023-09-08T13:20:36;25.80;99.90
12043;DHT22;6082;49.306;12.862;2023-09-08T13:23:02;25.80;99.90
12043;DHT22;6082;49.306;12.862;2023-09-08T13:25:27;25.90;99.90
12043;DHT22;6082;49.306;12.862;2023-09-08T13:27:53;25.90;99.90
12043;DHT22;6082;49.306;12.862;2023-09-08T13:30:19;26.00;99.90
12043;DHT22;6082;49.306;12.862;2023-09-08T13:32:47;26.10;99.90
12043;DHT22;6082;49.306;12.862;2023-09-08T13:35:12;26.10;99.90
12043;DHT22;6082;49.306;12.862;2023-09-08T13:37:38;26.10;99.90
12043;DHT22;6082;49.306;12.862;2023-09-08T13:40:04;26.00;99.90
12043;DHT22;6082;49.306;12.862;2023-09-08T13:42:30;26.00;99.90
12043;DHT22;6082;49.306;12.862;2023-09-08T13:44:55;26.00;99.90
12043;DHT22;6082;49.306;12.862;2023-09-08T13:47:21;26.10;99.90
12043;DHT22;6082;49.306;12.862;2023-09-08T13:49:47;26.20;99.90
12043;DHT22;6082;49.306;12.862;2023-09-08T13:52:13;26.30;99.90
12043;DHT22;6082;49.306;12.862;2023-09-08T13:54:38;26.20;99.90
12043;DHT22;6082;49.306;12.862;2023-09-08T13:57:05;26.20;99.90
12043;DHT22;6082;49.306;12.862;2023-09-08T13:59:31;26.20;99.90
12043;DHT22;6082;49.306;12.862;2023-09-08T14:01:57;26.30;99.90
12043;DHT22;6082;49.306;12.862;2023-09-08T14:04:27;26.30;99.90
12043;DHT22;6082;49.306;12.862;2023-09-08T14:06:53;26.30;99.90
12043;DHT22;6082;49.306;12.862;2023-09-08T14:09:18;26.30;99.90
12043;DHT22;6082;49.306;12.862;2023-09-08T14:11:44;26.30;99.90
12043;DHT22;6082;49.306;12.862;2023-09-08T14:14:10;26.30;99.90
12043;DHT22;6082;49.306;12.862;2023-09-08T14:16:36;26.50;99.90
12043;DHT22;6082;49.306;12.862;2023-09-08T14:19:02;26.50;99.90
12043;DHT22;6082;49.306;12.862;2023-09-08T14:21:28;26.50;99.90
12043;DHT22;6082;49.306;12.862;2023-09-08T14:23:53;26.40;99.90
12043;DHT22;6082;49.306;12.862;2023-09-08T14:26:19;26.50;99.90
12043;DHT22;6082;49.306;12.862;2023-09-08T14:28:46;26.50;99.90
12043;DHT22;6082;49.306;12.862;2023-09-08T14:31:11;26.50;99.90
12043;DHT22;6082;49.306;12.862;2023-09-08T14:33:37;26.50;99.90
12043;DHT22;6082;49.306;12.862;2023-09-08T14:36:03;26.40;99.90
12043;DHT22;6082;49.306;12.862;2023-09-08T14:38:29;26.40;99.90
12043;DHT22;6082;49.306;12.862;2023-09-08T14:40:59;26.40;99.90
12043;DHT22;6082;49.306;12.862;2023-09-08T14:43:26;26.40;99.90
12043;DHT22;6082;49.306;12.862;2023-09-08T14:45:52;26.30;99.90
12043;DHT22;6082;49.306;12.862;2023-09-08T14:48:18;26.40;99.90
12043;DHT22;6082;49.306;12.862;2023-09-08T14:50:44;26.50;99.90
12043;DHT22;6082;49.306;12.862;2023-09-08T14:53:10;26.40;99.90
12043;DHT22;6082;49.306;12.862;2023-09-08T14:55:36;26.30;99.90
12043;DHT22;6082;49.306;12.862;2023-09-08T14:58:02;26.30;99.90
12043;DHT22;6082;49.306;12.862;2023-09-08T15:00:28;26.20;99.90
12043;DHT22;6082;49.306;12.862;2023-09-08T15:02:53;26.30;99.90
12043;DHT22;6082;49.306;12.862;2023-09-08T15:05:19;26.30;99.90
12043;DHT22;6082;49.306;12.862;2023-09-08T15:07:45;26.30;99.90
12043;DHT22;6082;49.306;12.862;2023-09-08T15:10:11;26.30;99.90
12043;DHT22;6082;49.306;12.862;2023-09-08T15:12:37;26.30;99.90
12043;DHT22;6082;49.306;12.862;2023-09-08T15:15:03;26.30;99.90
12043;DHT22;6082;49.306;12.862;2023-09-08T15:17:30;26.30;99.90
12043;DHT22;6082;49.306;12.862;2023-09-08T15:19:56;26.20;99.90
12043;DHT22;6082;49.306;12.862;2023-09-08T15:22:21;26.20;99.90
12043;DHT22;6082;49.306;12.862;2023-09-08T15:24:47;26.10;99.90
12043;DHT22;6082;49.306;12.862;2023-09-08T15:27:13;26.30;99.90
12043;DHT22;6082;49.306;12.862;2023-09-08T15:29:38;26.20;99.90
12043;DHT22;6082;49.306;12.862;2023-09-08T15:32:04;26.20;99.90
12043;DHT22;6082;49.306;12.862;2023-09-08T15:34:31;26.20;99.90
12043;DHT22;6082;49.306;12.862;2023-09-08T15:36:57;26.30;99.90